createdAt,value
2022-08-26T00:00:01.573Z,20.20
2022-08-26T00:02:29.071Z,20.10
2022-08-26T00:04:56.910Z,20.10
2022-08-26T00:07:23.986Z,20.00
2022-08-26T00:09:54.388Z,20.00
2022-08-26T00:12:31.553Z,20.10
2022-08-26T00:15:03.741Z,20.00
2022-08-26T00:17:34.190Z,19.10
2022-08-26T00:20:03.787Z,20.00
2022-08-26T00:22:31.382Z,19.90
2022-08-26T00:24:58.519Z,20.70
2022-08-26T00:27:25.707Z,19.90
2022-08-26T00:29:52.782Z,19.90
2022-08-26T00:32:20.766Z,19.80
2022-08-26T00:34:47.823Z,19.80
2022-08-26T00:37:16.410Z,19.80
2022-08-26T00:39:44.868Z,19.80
2022-08-26T00:42:13.193Z,19.80
2022-08-26T00:44:40.336Z,19.80
2022-08-26T00:47:10.529Z,19.70
2022-08-26T00:49:39.750Z,19.70
2022-08-26T00:52:13.137Z,19.50
2022-08-26T00:54:47.282Z,19.70
2022-08-26T00:57:16.711Z,19.70
2022-08-26T00:59:46.387Z,19.70
2022-08-26T01:02:20.068Z,19.60
2022-08-26T01:04:48.587Z,19.60
2022-08-26T01:07:22.685Z,19.60
2022-08-26T01:09:50.420Z,19.60
2022-08-26T01:12:22.178Z,19.30
2022-08-26T01:14:49.931Z,19.50
2022-08-26T01:17:21.180Z,19.60
2022-08-26T01:19:54.434Z,19.50
2022-08-26T01:22:30.492Z,19.40
2022-08-26T01:25:00.324Z,19.40
2022-08-26T01:27:33.689Z,19.40
2022-08-26T01:30:01.920Z,19.40
2022-08-26T01:32:32.128Z,19.40
2022-08-26T01:34:59.717Z,19.40
2022-08-26T01:37:29.329Z,19.40
2022-08-26T01:39:56.912Z,19.40
2022-08-26T01:42:25.629Z,18.90
2022-08-26T01:44:55.979Z,19.30
2022-08-26T01:47:25.966Z,19.30
2022-08-26T01:49:55.051Z,19.30
2022-08-26T01:52:27.611Z,19.20
2022-08-26T01:54:56.245Z,18.70
2022-08-26T01:57:24.151Z,19.20
2022-08-26T01:59:53.259Z,19.20
2022-08-26T02:02:20.943Z,19.20
2022-08-26T02:04:50.815Z,19.20
2022-08-26T02:07:21.742Z,19.20
2022-08-26T02:09:50.014Z,19.10
2022-08-26T02:12:18.538Z,19.10
2022-08-26T02:14:51.277Z,19.10
2022-08-26T02:17:21.903Z,19.00
2022-08-26T02:19:50.118Z,19.00
2022-08-26T02:22:31.053Z,19.10
2022-08-26T02:25:00.782Z,19.10
2022-08-26T02:27:32.817Z,19.10
2022-08-26T02:30:07.474Z,19.00
2022-08-26T02:32:45.360Z,19.00
2022-08-26T02:35:20.244Z,19.00
2022-08-26T02:37:49.491Z,19.00
2022-08-26T02:40:32.006Z,19.30
2022-08-26T02:42:59.479Z,18.90
2022-08-26T02:45:31.359Z,18.90
2022-08-26T02:48:02.330Z,18.90
2022-08-26T02:50:44.253Z,18.80
2022-08-26T02:53:12.444Z,18.80
2022-08-26T02:55:42.029Z,19.20
2022-08-26T02:58:11.520Z,18.80
2022-08-26T03:00:53.479Z,18.80
2022-08-26T03:03:29.187Z,18.80
2022-08-26T03:05:59.309Z,19.50
2022-08-26T03:08:27.784Z,18.70
2022-08-26T03:11:01.552Z,18.70
2022-08-26T03:13:30.544Z,18.60
2022-08-26T03:16:02.090Z,18.70
2022-08-26T03:18:41.247Z,18.60
2022-08-26T03:21:11.562Z,18.60
2022-08-26T03:23:45.021Z,17.80
2022-08-26T03:26:16.136Z,18.60
2022-08-26T03:29:04.755Z,18.60
2022-08-26T03:31:51.724Z,18.70
2022-08-26T03:34:24.749Z,20.30
2022-08-26T03:39:53.169Z,18.60
2022-08-26T03:45:42.615Z,18.60
2022-08-26T03:51:18.157Z,18.40
2022-08-26T03:53:58.462Z,17.60
2022-08-26T03:57:03.115Z,18.50
2022-08-26T04:07:12.063Z,18.60
2022-08-26T04:09:50.992Z,18.60
2022-08-26T04:15:21.674Z,19.30
2022-08-26T04:21:01.905Z,18.70
2022-08-26T04:24:12.124Z,18.70
2022-08-26T04:30:12.755Z,18.30
2022-08-26T04:33:12.997Z,17.40
2022-08-26T04:36:20.171Z,18.70
2022-08-26T04:43:19.079Z,17.50
2022-08-26T04:50:00.101Z,19.40
2022-08-26T04:52:34.632Z,18.80
2022-08-26T05:24:03.502Z,18.90
2022-08-26T05:26:33.190Z,18.20
2022-08-26T05:29:02.848Z,17.40
2022-08-26T05:31:44.648Z,18.90
2022-08-26T05:34:44.409Z,18.90
2022-08-26T05:37:40.469Z,18.90
2022-08-26T06:40:07.947Z,19.90
2022-08-26T06:52:43.637Z,18.60
2022-08-26T06:55:13.025Z,20.00
2022-08-26T06:57:51.476Z,19.90
2022-08-26T07:00:52.946Z,20.70
2022-08-26T07:03:24.320Z,21.60
2022-08-26T07:06:21.261Z,20.20
2022-08-26T07:11:51.787Z,20.40
2022-08-26T07:14:47.519Z,20.60
2022-08-26T07:17:25.013Z,20.20
2022-08-26T07:20:01.261Z,20.80
2022-08-26T07:25:24.195Z,20.70
2022-08-26T07:31:04.386Z,20.90
2022-08-26T07:33:50.895Z,20.80
2022-08-26T07:39:11.165Z,21.10
2022-08-26T07:41:38.682Z,21.20
2022-08-26T07:44:05.928Z,21.30
2022-08-26T07:53:40.997Z,21.80
2022-08-26T08:31:55.694Z,22.80
2022-08-26T08:37:15.708Z,22.60
2022-08-26T08:39:48.949Z,22.90
2022-08-26T08:45:35.926Z,23.00
2022-08-26T08:48:08.802Z,23.10
2022-08-26T08:50:48.047Z,23.20
2022-08-26T08:53:24.791Z,23.00
2022-08-26T08:55:55.610Z,23.30
2022-08-26T09:01:39.735Z,23.40
2022-08-26T09:04:26.570Z,23.30
2022-08-26T09:07:04.974Z,23.50
2022-08-26T09:09:51.947Z,23.40
2022-08-26T09:12:29.513Z,23.50
2022-08-26T09:15:04.114Z,23.70
2022-08-26T09:36:59.723Z,23.90
2022-08-26T09:55:45.098Z,24.50
2022-08-26T10:01:34.875Z,25.00
2022-08-26T10:14:57.633Z,25.40
2022-08-26T10:28:30.624Z,25.30
2022-08-26T10:35:16.743Z,25.40
2022-08-26T10:38:13.193Z,25.50
2022-08-26T10:47:52.037Z,25.80
2022-08-26T11:11:47.066Z,25.90
2022-08-26T11:21:19.429Z,25.90
2022-08-26T11:38:07.454Z,26.40
2022-08-26T12:21:00.362Z,26.80
2022-08-26T12:26:49.619Z,26.40
2022-08-26T12:41:13.518Z,26.50
2022-08-26T12:43:58.188Z,26.70
2022-08-26T12:55:32.275Z,26.40
2022-08-26T12:58:13.798Z,26.50
2022-08-26T13:00:42.092Z,26.60
2022-08-26T13:03:28.750Z,26.30
2022-08-26T13:06:15.892Z,26.10
2022-08-26T13:08:54.631Z,25.80
2022-08-26T13:11:29.333Z,25.60
2022-08-26T13:14:06.934Z,25.40
2022-08-26T13:16:51.740Z,25.40
2022-08-26T13:22:29.368Z,25.70
2022-08-26T13:28:27.372Z,26.90
2022-08-26T13:37:04.892Z,26.20
2022-08-26T13:39:35.204Z,26.20
2022-08-26T13:42:02.603Z,25.90
2022-08-26T13:44:29.809Z,25.90
2022-08-26T13:46:56.960Z,25.70
2022-08-26T13:49:24.136Z,25.70
2022-08-26T13:51:56.472Z,25.70
2022-08-26T13:54:24.212Z,25.70
2022-08-26T13:56:51.904Z,26.10
2022-08-26T13:59:31.158Z,26.10
2022-08-26T14:07:57.484Z,27.10
2022-08-26T14:10:25.216Z,27.40
2022-08-26T14:12:53.132Z,27.30
2022-08-26T14:15:20.366Z,27.30
2022-08-26T14:17:48.090Z,27.50
2022-08-26T14:20:18.493Z,27.80
2022-08-26T14:58:30.971Z,27.00
2022-08-26T15:15:58.625Z,26.10
2022-08-26T15:21:40.745Z,25.20
2022-08-26T15:24:22.909Z,26.70
2022-08-26T15:30:21.471Z,25.20
2022-08-26T15:32:53.711Z,25.90
2022-08-26T15:38:35.061Z,25.60
2022-08-26T15:41:18.927Z,25.00
2022-08-26T16:31:07.145Z,24.60
2022-08-26T16:33:54.585Z,24.30
2022-08-26T16:36:25.393Z,25.10
2022-08-26T16:41:47.951Z,24.20
2022-08-26T16:53:47.308Z,24.20
2022-08-26T16:56:33.541Z,25.20
2022-08-26T16:59:28.972Z,24.10
2022-08-26T17:02:01.758Z,24.10
2022-08-26T17:04:29.518Z,24.10
2022-08-26T17:06:57.242Z,24.10
2022-08-26T17:09:29.711Z,22.50
2022-08-26T17:11:57.489Z,24.00
2022-08-26T17:14:28.707Z,24.00
2022-08-26T17:16:57.455Z,23.90
2022-08-26T17:19:28.022Z,23.90
2022-08-26T17:22:00.962Z,23.80
2022-08-26T17:24:34.629Z,23.80
2022-08-26T17:27:05.475Z,23.80
2022-08-26T17:29:37.845Z,23.60
2022-08-26T17:32:05.429Z,23.60
2022-08-26T17:34:32.700Z,23.50
2022-08-26T17:37:01.183Z,23.50
2022-08-26T17:39:28.478Z,23.50
2022-08-26T17:41:55.592Z,23.40
2022-08-26T17:44:24.647Z,23.00
2022-08-26T17:46:53.206Z,23.30
2022-08-26T17:49:20.514Z,23.20
2022-08-26T17:51:48.425Z,23.20
2022-08-26T17:54:26.006Z,23.10
2022-08-26T17:57:04.899Z,23.10
2022-08-26T17:59:43.537Z,23.00
2022-08-26T18:02:21.296Z,22.90
2022-08-26T18:04:58.672Z,22.50
2022-08-26T18:07:43.698Z,22.90
2022-08-26T18:10:18.860Z,22.70
2022-08-26T18:12:53.356Z,22.70
2022-08-26T18:15:24.289Z,22.70
2022-08-26T18:17:54.971Z,22.60
2022-08-26T18:20:24.869Z,22.30
2022-08-26T18:22:55.776Z,22.60
2022-08-26T18:25:26.436Z,22.50
2022-08-26T18:27:57.479Z,22.80
2022-08-26T18:30:28.099Z,22.50
2022-08-26T18:32:58.900Z,22.50
2022-08-26T18:35:31.023Z,22.50
2022-08-26T18:38:10.697Z,22.20
2022-08-26T18:40:42.027Z,22.30
2022-08-26T18:43:10.910Z,22.40
2022-08-26T18:45:50.059Z,22.00
2022-08-26T18:48:19.586Z,21.80
2022-08-26T18:50:50.144Z,21.90
2022-08-26T18:53:19.800Z,22.00
2022-08-26T18:55:49.101Z,21.60
2022-08-26T18:58:17.973Z,21.60
2022-08-26T19:00:47.820Z,22.00
2022-08-26T19:03:18.928Z,22.20
2022-08-26T19:05:47.916Z,21.90
2022-08-26T19:08:17.054Z,20.30
2022-08-26T19:10:47.981Z,21.90
2022-08-26T19:13:17.258Z,21.80
2022-08-26T19:15:46.233Z,21.80
2022-08-26T19:18:15.902Z,21.80
2022-08-26T19:20:46.862Z,21.80
2022-08-26T19:23:30.790Z,21.90
2022-08-26T19:26:03.271Z,21.70
2022-08-26T19:28:31.928Z,21.60
2022-08-26T19:31:02.772Z,21.60
2022-08-26T19:33:30.175Z,21.60
2022-08-26T19:36:04.752Z,21.60
2022-08-26T19:38:36.308Z,21.50
2022-08-26T19:41:05.341Z,21.50
2022-08-26T19:43:33.546Z,21.50
2022-08-26T19:46:08.691Z,21.40
2022-08-26T19:48:37.075Z,21.40
2022-08-26T19:51:06.264Z,20.80
2022-08-26T19:53:39.442Z,21.30
2022-08-26T19:56:08.731Z,21.30
2022-08-26T19:58:37.877Z,21.20
2022-08-26T20:01:06.119Z,21.20
2022-08-26T20:03:33.856Z,21.20
2022-08-26T20:06:02.985Z,21.20
2022-08-26T20:08:32.022Z,21.10
2022-08-26T20:11:03.148Z,21.00
2022-08-26T20:13:31.077Z,21.10
2022-08-26T20:15:59.205Z,21.00
2022-08-26T20:18:45.808Z,21.00
2022-08-26T20:21:29.729Z,21.00
2022-08-26T20:23:59.393Z,20.80
2022-08-26T20:26:29.031Z,21.00
2022-08-26T20:28:57.158Z,21.00
2022-08-26T20:31:27.167Z,20.90
2022-08-26T20:33:54.986Z,20.80
2022-08-26T20:36:22.960Z,20.80
2022-08-26T20:38:53.066Z,20.90
2022-08-26T20:41:20.550Z,20.80
2022-08-26T20:43:47.907Z,20.70
2022-08-26T20:46:18.035Z,20.70
2022-08-26T20:48:47.204Z,20.70
2022-08-26T20:51:15.065Z,20.70
2022-08-26T20:53:42.461Z,20.70
2022-08-26T20:56:10.538Z,20.70
2022-08-26T20:58:38.621Z,20.60
2022-08-26T21:01:08.011Z,20.70
2022-08-26T21:03:36.459Z,20.60
2022-08-26T21:06:03.979Z,20.60
2022-08-26T21:08:33.092Z,20.60
2022-08-26T21:11:00.969Z,20.50
2022-08-26T21:13:42.906Z,20.50
2022-08-26T21:16:18.894Z,20.50
2022-08-26T21:18:46.367Z,20.40
2022-08-26T21:21:14.026Z,20.50
2022-08-26T21:23:41.281Z,20.40
2022-08-26T21:26:10.000Z,20.40
2022-08-26T21:28:38.608Z,20.50
2022-08-26T21:31:06.488Z,20.50
2022-08-26T21:33:34.159Z,20.50
2022-08-26T21:36:01.965Z,20.50
2022-08-26T21:38:34.332Z,20.50
2022-08-26T21:41:02.989Z,20.40
2022-08-26T21:43:34.929Z,20.40
2022-08-26T21:46:11.757Z,20.30
2022-08-26T21:48:39.422Z,20.30
2022-08-26T21:51:06.752Z,20.30
2022-08-26T21:53:34.387Z,20.30
2022-08-26T21:56:12.803Z,20.30
2022-08-26T21:58:40.463Z,20.30
2022-08-26T22:01:15.096Z,20.30
2022-08-26T22:03:47.473Z,20.20
2022-08-26T22:06:17.694Z,20.20
2022-08-26T22:08:44.961Z,20.10
2022-08-26T22:11:12.628Z,20.10
2022-08-26T22:13:41.200Z,20.00
2022-08-26T22:16:10.486Z,19.90
2022-08-26T22:18:38.280Z,19.90
2022-08-26T22:21:09.299Z,19.90
2022-08-26T22:23:37.758Z,19.90
2022-08-26T22:26:06.319Z,19.80
2022-08-26T22:28:35.388Z,19.80
2022-08-26T22:31:02.697Z,19.70
2022-08-26T22:33:30.450Z,19.70
2022-08-26T22:35:59.065Z,19.70
2022-08-26T22:38:26.452Z,19.70
2022-08-26T22:40:59.914Z,19.70
2022-08-26T22:43:28.274Z,19.70
2022-08-26T22:45:56.278Z,19.60
2022-08-26T22:48:24.602Z,19.60
2022-08-26T22:50:56.134Z,19.60
2022-08-26T22:53:25.718Z,19.60
2022-08-26T22:55:52.872Z,19.60
2022-08-26T22:58:20.379Z,19.50
2022-08-26T23:00:50.300Z,19.50
2022-08-26T23:03:19.634Z,19.50
2022-08-26T23:05:47.113Z,19.50
2022-08-26T23:08:18.846Z,19.40
2022-08-26T23:10:49.515Z,19.40
2022-08-26T23:13:16.984Z,19.40
2022-08-26T23:15:45.376Z,19.40
2022-08-26T23:18:13.526Z,19.40
2022-08-26T23:20:41.758Z,19.40
2022-08-26T23:23:10.248Z,19.30
2022-08-26T23:25:38.019Z,19.30
2022-08-26T23:28:06.523Z,19.20
2022-08-26T23:30:34.757Z,19.20
2022-08-26T23:33:03.465Z,19.20
2022-08-26T23:35:30.679Z,19.20
2022-08-26T23:37:59.313Z,19.20
2022-08-26T23:40:28.849Z,19.10
2022-08-26T23:42:57.213Z,19.10
2022-08-26T23:45:24.827Z,19.00
2022-08-26T23:47:52.324Z,19.00
2022-08-26T23:50:20.522Z,19.00
2022-08-26T23:53:06.157Z,19.00
2022-08-26T23:55:35.681Z,19.00
2022-08-26T23:58:02.895Z,18.90
